This is the latest recevied weather packets stored in our database for station/object WX4LTG. If no packets are shown the sender has not sent any weather packets the latest 1 day(s).
| Time | Temp. | Humidity | Pressure | Rain* | Wind** | Luminosity | Snow |
|---|---|---|---|---|---|---|---|
| 1778083704 | 21.67° C | 34% | 1016.3 hPa | 0 mm | - | 449 W/m² | - |
| 1778083099 | 21.11° C | 35% | 1016.3 hPa | 0 mm | - | 423 W/m² | - |
| 1778080457 | 20° C | 38% | 1016.4 hPa | 0 mm | - | 297 W/m² | - |
| 1778077127 | 17.22° C | 44% | 1016.1 hPa | 0 mm | - | 143 W/m² | - |
| 1778074096 | 16.11° C | 50% | 1015.4 hPa | 0 mm | - | 46 W/m² | - |
| 1778073187 | 15.56° C | 53% | 1015.3 hPa | 0 mm | - | 28 W/m² | - |
| 1778071675 | 13.89° C | 58% | 1015.1 hPa | 0 mm | - | 9 W/m² | - |
| 1778071372 | 13.89° C | 60% | 1015.1 hPa | 0 mm | - | 6 W/m² | - |
| 1778070768 | 13.89° C | 55% | 1014.7 hPa | 0 mm | - | 2 W/m² | - |
| 1778069556 | 15.56° C | 49% | 1014.5 hPa | 0 mm | - | 0 W/m² | - |
| 1778068649 | 15.56° C | 49% | 1014.5 hPa | 0 mm | - | 0 W/m² | - |
| 1778068347 | 15.56° C | 48% | 1014.5 hPa | 0 mm | - | 0 W/m² | - |
| 1778067440 | 15° C | 49% | 1014.4 hPa | 0 mm | - | 0 W/m² | - |
| 1778067137 | 15° C | 49% | 1014.5 hPa | 0 mm | - | 0 W/m² | - |
| 1778065321 | 15° C | 50% | 1014.3 hPa | 0 mm | - | 0 W/m² | - |
| 1778065017 | 15° C | 51% | 1014.4 hPa | 0 mm | - | 0 W/m² | - |
| 1778064412 | 15° C | 52% | 1014.2 hPa | 0 mm | - | 0 W/m² | - |
| 1778062595 | 15° C | 53% | 1014.1 hPa | 0 mm | - | 0 W/m² | - |
| 1778062292 | 15.56° C | 52% | 1013.8 hPa | 0 mm | - | 0 W/m² | - |
| 1778061991 | 15.56° C | 51% | 1013.8 hPa | 0 mm | - | 0 W/m² | - |
| 1778061387 | 15.56° C | 49% | 1013.8 hPa | 0 mm | - | 0 W/m² | - |
| 1778061083 | 15.56° C | 49% | 1014 hPa | 0 mm | - | 0 W/m² | - |
| 1778060478 | 15.56° C | 47% | 1013.6 hPa | 0 mm | - | 0 W/m² | - |
| 1778059571 | 16.11° C | 46% | 1013.6 hPa | 0 mm | - | 0 W/m² | - |
| 1778058966 | 16.11° C | 44% | 1013.6 hPa | 0 mm | - | 0 W/m² | - |
* Rain latest hour (hover to see other rain measurements)
** Current wind speed in m/s (hover to see current wind gust speed)